createdAt,value
2023-03-23T15:58:44.168Z,160621.34
2023-03-23T16:01:16.179Z,160624.06
2023-03-23T16:03:51.682Z,160606.63
2023-03-23T16:06:23.936Z,160583.88
2023-03-23T16:08:57.142Z,160586.53
2023-03-23T16:11:28.685Z,160577.19
2023-03-23T16:13:56.684Z,160538.41
2023-03-23T16:16:48.742Z,160529.00
2023-03-23T16:19:20.486Z,160514.28
2023-03-23T16:21:48.974Z,160499.53
2023-03-23T16:24:16.841Z,160458.06
2023-03-23T16:26:45.191Z,160459.38
2023-03-23T16:29:28.359Z,160420.59
2023-03-23T16:32:02.423Z,160391.16
2023-03-23T16:34:33.155Z,160376.41
2023-03-23T16:37:02.174Z,160358.97
2023-03-23T16:39:30.264Z,160348.28
2023-03-23T16:41:59.037Z,160322.84
2023-03-23T16:44:27.565Z,160298.78
2023-03-23T16:46:56.197Z,160297.41
2023-03-23T16:49:24.086Z,160297.41
2023-03-23T16:51:52.662Z,160282.69
2023-03-23T16:54:20.772Z,160266.66
2023-03-23T16:56:49.413Z,160273.34
2023-03-23T16:59:17.421Z,160254.59
2023-03-23T17:01:46.096Z,160249.28
2023-03-23T17:04:16.002Z,160237.25
2023-03-23T17:06:44.549Z,160229.22
2023-03-23T17:09:13.027Z,160217.16
2023-03-23T17:11:41.078Z,160205.13
2023-03-23T17:14:09.463Z,160199.81
2023-03-23T17:16:39.057Z,160203.78
2023-03-23T17:19:07.843Z,160209.16
2023-03-23T17:21:36.445Z,160202.47
2023-03-23T17:24:05.103Z,160181.06
2023-03-23T17:26:33.604Z,160163.66
2023-03-23T17:29:02.481Z,160169.00
2023-03-23T17:31:31.390Z,160131.56
2023-03-23T17:33:59.552Z,160140.91
2023-03-23T17:36:27.833Z,160128.91
2023-03-23T17:38:55.884Z,160134.22
2023-03-23T17:41:24.510Z,160118.19
2023-03-23T17:43:53.188Z,160111.50
2023-03-23T17:46:21.451Z,160110.19
2023-03-23T17:48:49.468Z,160103.50
2023-03-23T17:51:18.421Z,160119.53
2023-03-23T17:53:47.243Z,160118.19
2023-03-23T17:56:15.732Z,160111.50
2023-03-23T17:58:43.947Z,160096.81
2023-03-23T18:01:12.016Z,160110.19
2023-03-23T18:03:39.983Z,160108.84
2023-03-23T18:06:09.546Z,160110.19
2023-03-23T18:08:38.052Z,160104.81
2023-03-23T18:11:08.702Z,160100.84
2023-03-23T18:13:38.068Z,160095.47
2023-03-23T18:16:07.193Z,160095.47
2023-03-23T18:18:35.549Z,160087.47
2023-03-23T18:21:08.248Z,160083.44
2023-03-23T18:23:45.963Z,160067.41
2023-03-23T18:26:17.949Z,160067.41
2023-03-23T18:28:45.780Z,160074.09
2023-03-23T18:31:15.691Z,160060.72
2023-03-23T18:33:48.134Z,160052.69
2023-03-23T18:36:19.872Z,160056.69
2023-03-23T18:38:48.545Z,160055.34
2023-03-23T18:41:18.971Z,160045.97
2023-03-23T18:43:47.521Z,160037.94
2023-03-23T18:46:16.779Z,160033.91
2023-03-23T18:48:44.850Z,160005.84
2023-03-23T18:51:13.963Z,160020.53
2023-03-23T18:53:42.073Z,160005.84
2023-03-23T18:56:13.863Z,160008.53
2023-03-23T18:58:42.938Z,159996.50
2023-03-23T19:01:15.153Z,159977.75
2023-03-23T19:03:45.795Z,159969.75
2023-03-23T19:06:19.229Z,159975.09
2023-03-23T19:08:52.871Z,159971.06
2023-03-23T19:11:24.970Z,159949.69
2023-03-23T19:14:01.761Z,159944.31
2023-03-23T19:16:36.225Z,159945.72
2023-03-23T19:19:08.244Z,159933.66
2023-03-23T19:21:38.309Z,159917.63
2023-03-23T19:24:08.410Z,159910.94
2023-03-23T19:26:40.109Z,159904.25
2023-03-23T19:31:44.795Z,159897.56
2023-03-23T19:34:15.791Z,159882.88
2023-03-23T19:36:54.205Z,159888.19
2023-03-23T19:39:25.073Z,159870.84
2023-03-23T19:41:53.878Z,159876.19
2023-03-23T19:44:22.276Z,159858.78
2023-03-23T19:46:52.680Z,159862.81
2023-03-23T19:49:21.546Z,159849.47
2023-03-23T19:51:50.759Z,159862.81
2023-03-23T19:54:37.533Z,159846.81
2023-03-23T19:57:06.316Z,159841.44
2023-03-23T19:59:36.047Z,159845.44
2023-03-23T20:02:07.739Z,159829.41
2023-03-23T20:04:36.584Z,159836.09
2023-03-23T20:07:11.067Z,159833.44
2023-03-23T20:09:41.437Z,159837.41
2023-03-23T20:12:10.420Z,159850.78
2023-03-23T20:14:44.099Z,159829.41
2023-03-23T20:17:14.481Z,159829.41
2023-03-23T20:19:43.051Z,159836.09
2023-03-23T20:22:11.652Z,159834.75
2023-03-23T20:24:39.390Z,159862.81
2023-03-23T20:27:08.207Z,159872.16
2023-03-23T20:29:36.675Z,159892.22
2023-03-23T20:32:05.388Z,159880.19
2023-03-23T20:34:34.646Z,159880.19
2023-03-23T20:37:03.660Z,159905.59
2023-03-23T20:39:33.328Z,159896.25
2023-03-23T20:42:04.908Z,159893.53
2023-03-23T20:44:35.182Z,159892.22
2023-03-23T20:47:04.206Z,159890.91
2023-03-23T20:49:33.806Z,159890.91
2023-03-23T20:52:02.481Z,159890.91
2023-03-23T20:54:31.366Z,159882.88
2023-03-23T20:57:00.328Z,159888.19
2023-03-23T20:59:28.742Z,159886.84
2023-03-23T21:01:56.984Z,159868.19
2023-03-23T21:04:27.771Z,159884.19
2023-03-23T21:06:56.493Z,159897.56
2023-03-23T21:09:25.647Z,159902.94
2023-03-23T21:11:54.848Z,159893.53
2023-03-23T21:14:22.935Z,159892.22
2023-03-23T21:16:52.056Z,159890.91
2023-03-23T21:19:20.670Z,159882.88
2023-03-23T21:21:55.785Z,159886.84
2023-03-23T21:24:28.464Z,159870.84
2023-03-23T21:27:00.245Z,159869.50
2023-03-23T21:29:28.544Z,159870.84
2023-03-23T21:34:28.464Z,159866.81
2023-03-23T21:36:57.126Z,159862.81
2023-03-23T21:39:24.958Z,159852.13
2023-03-23T21:41:53.106Z,159848.13
2023-03-23T21:44:21.294Z,159832.06
2023-03-23T21:46:52.969Z,159816.03
2023-03-23T21:49:21.183Z,159822.72
2023-03-23T21:51:50.404Z,159813.38
2023-03-23T21:54:18.739Z,159806.69
2023-03-23T21:56:48.662Z,159808.03
2023-03-23T21:59:17.150Z,159790.69
2023-03-23T22:01:45.843Z,159769.31
2023-03-23T22:04:13.757Z,159770.63
2023-03-23T22:06:42.973Z,159762.63
2023-03-23T22:09:11.849Z,159755.94
2023-03-23T22:11:40.658Z,159738.53
2023-03-23T22:14:09.064Z,159727.88
2023-03-23T22:16:37.776Z,159715.84
2023-03-23T22:19:07.326Z,159701.16
2023-03-23T22:21:36.922Z,159682.38
2023-03-23T22:24:06.750Z,159681.06
2023-03-23T22:26:35.259Z,159667.69
2023-03-23T22:29:04.051Z,159654.34
2023-03-23T22:31:35.235Z,159651.69
2023-03-23T22:34:03.751Z,159646.31
2023-03-23T22:36:33.511Z,159643.66
2023-03-23T22:39:02.366Z,159626.28
2023-03-23T22:41:34.060Z,159627.66
2023-03-23T22:44:01.876Z,159615.63
2023-03-23T22:46:30.399Z,159600.94
2023-03-23T22:48:58.280Z,159591.56
2023-03-23T22:51:26.845Z,159571.56
2023-03-23T22:53:55.596Z,159571.56
2023-03-23T22:56:25.900Z,159562.19
2023-03-23T22:58:55.037Z,159552.84
2023-03-23T23:01:23.837Z,159555.50
2023-03-23T23:03:51.925Z,159555.50
2023-03-23T23:06:21.059Z,159568.88
2023-03-23T23:08:49.332Z,159571.56
2023-03-23T23:11:18.795Z,159568.88
2023-03-23T23:13:47.283Z,159540.81
2023-03-23T23:16:19.146Z,159554.19
2023-03-23T23:18:49.984Z,159550.19
2023-03-23T23:21:20.614Z,159550.19
2023-03-23T23:23:48.777Z,159538.16
2023-03-23T23:26:18.093Z,159527.47
2023-03-23T23:28:46.751Z,159514.09
2023-03-23T23:31:35.014Z,159512.78
2023-03-23T23:34:04.504Z,159511.44
2023-03-23T23:36:33.650Z,159496.78
2023-03-23T23:39:03.806Z,159488.75
2023-03-23T23:41:32.084Z,159480.75
2023-03-23T23:44:00.243Z,159471.38
2023-03-23T23:46:31.093Z,159472.75
2023-03-23T23:49:00.419Z,159478.06
2023-03-23T23:51:30.006Z,159479.38
2023-03-23T23:54:01.998Z,159484.75
2023-03-23T23:56:31.312Z,159480.75
2023-03-23T23:58:59.427Z,159494.13
